createdAt,value
2019-03-23T00:07:47.345Z,6.79
2019-03-23T00:18:30.776Z,6.64
2019-03-23T00:29:11.423Z,6.62
2019-03-23T00:39:52.133Z,6.57
2019-03-23T00:50:36.303Z,6.34
2019-03-23T01:01:18.882Z,6.24
2019-03-23T01:11:58.528Z,5.99
2019-03-23T01:22:43.231Z,5.92
2019-03-23T01:33:26.939Z,5.90
2019-03-23T01:44:10.914Z,5.95
2019-03-23T01:54:53.015Z,5.92
2019-03-23T02:05:37.296Z,5.97
2019-03-23T02:16:21.359Z,5.70
2019-03-23T02:27:04.725Z,5.69
2019-03-23T02:37:46.489Z,5.69
2019-03-23T02:48:31.688Z,5.55
2019-03-23T02:59:12.445Z,5.41
2019-03-23T03:09:55.610Z,5.22
2019-03-23T03:20:40.046Z,5.17
2019-03-23T03:31:24.831Z,5.10
2019-03-23T03:42:07.461Z,4.88
2019-03-23T03:52:52.688Z,4.77
2019-03-23T04:03:35.957Z,4.71
2019-03-23T04:14:18.333Z,4.55
2019-03-23T04:25:01.216Z,4.53
2019-03-23T04:35:43.209Z,4.46
2019-03-23T04:46:26.724Z,4.34
2019-03-23T04:57:09.615Z,4.64
2019-03-23T05:07:53.680Z,4.91
2019-03-23T05:18:39.214Z,5.53
2019-03-23T05:29:24.804Z,6.03
2019-03-23T05:40:08.746Z,6.27
2019-03-23T05:50:49.588Z,6.35
2019-03-23T06:01:34.327Z,6.38
2019-03-23T06:12:17.762Z,6.46
2019-03-23T06:23:02.087Z,6.59
2019-03-23T06:33:42.794Z,6.62
2019-03-23T06:44:25.090Z,6.58
2019-03-23T06:55:07.527Z,6.62
2019-03-23T07:05:49.029Z,6.66
2019-03-23T07:16:32.456Z,6.74
2019-03-23T07:27:11.877Z,6.80
2019-03-23T07:37:48.237Z,6.93
2019-03-23T07:48:33.517Z,6.99
2019-03-23T07:59:16.652Z,6.95
2019-03-23T08:10:00.934Z,7.04
2019-03-23T08:20:44.248Z,7.19
2019-03-23T08:31:21.908Z,7.35
2019-03-23T08:42:02.999Z,7.46
2019-03-23T08:52:47.279Z,7.53
2019-03-23T09:03:35.948Z,7.64
2019-03-23T09:14:04.595Z,7.70
2019-03-23T09:24:45.977Z,7.65
2019-03-23T09:35:25.541Z,7.73
2019-03-23T09:46:08.547Z,7.79
2019-03-23T09:56:52.261Z,7.96
2019-03-23T10:07:36.602Z,8.25
2019-03-23T10:18:20.595Z,8.34
2019-03-23T10:29:06.376Z,8.54
2019-03-23T10:39:50.017Z,8.71
2019-03-23T10:50:32.589Z,8.71
2019-03-23T11:01:17.082Z,9.07
2019-03-23T11:12:01.011Z,9.46
2019-03-23T11:22:42.453Z,9.41
2019-03-23T11:33:27.145Z,9.58
2019-03-23T11:44:04.424Z,9.89
2019-03-23T11:54:43.640Z,9.96
2019-03-23T12:05:24.981Z,10.00
2019-03-23T12:16:01.896Z,9.95
2019-03-23T12:26:39.159Z,10.03
2019-03-23T12:37:17.412Z,10.24
2019-03-23T12:47:51.178Z,10.35
2019-03-23T12:58:24.559Z,10.31
2019-03-23T13:09:00.660Z,10.47
2019-03-23T13:19:34.935Z,10.28
2019-03-23T13:30:14.165Z,10.17
2019-03-23T13:40:50.973Z,10.32
2019-03-23T13:51:33.672Z,10.27
2019-03-23T14:02:08.376Z,10.39
2019-03-23T14:12:49.824Z,10.70
2019-03-23T14:23:34.286Z,10.60
2019-03-23T14:34:17.610Z,10.68
2019-03-23T14:44:54.850Z,10.98
2019-03-23T14:55:37.855Z,10.89
2019-03-23T15:06:22.576Z,10.87
2019-03-23T15:17:05.878Z,11.17
2019-03-23T15:27:51.254Z,11.44
2019-03-23T15:38:33.606Z,11.52
2019-03-23T15:49:18.129Z,11.79
2019-03-23T16:00:02.683Z,12.05
2019-03-23T16:10:41.228Z,12.15
2019-03-23T16:21:21.526Z,12.20
2019-03-23T16:31:56.728Z,12.08
2019-03-23T16:42:31.450Z,11.92
2019-03-23T16:53:13.601Z,11.77
2019-03-23T17:03:53.636Z,11.57
2019-03-23T17:14:34.963Z,11.46
2019-03-23T17:25:16.493Z,11.23
2019-03-23T17:35:57.216Z,11.14
2019-03-23T17:46:38.375Z,10.89
2019-03-23T17:57:12.652Z,10.62
2019-03-23T18:07:47.279Z,10.23
2019-03-23T18:18:18.040Z,9.98
2019-03-23T18:28:56.652Z,9.52
2019-03-23T18:39:36.276Z,9.23
2019-03-23T18:50:17.030Z,8.94
2019-03-23T19:00:51.986Z,8.93
2019-03-23T19:11:32.778Z,8.70
2019-03-23T19:22:09.936Z,8.69
2019-03-23T19:32:52.722Z,8.56
2019-03-23T19:43:33.231Z,8.39
2019-03-23T19:54:12.859Z,8.24
2019-03-23T20:04:52.471Z,8.07
2019-03-23T20:15:28.884Z,8.01
2019-03-23T20:26:10.514Z,7.93
2019-03-23T20:36:47.316Z,7.95
2019-03-23T20:47:22.311Z,7.89
2019-03-23T20:57:54.158Z,7.84
2019-03-23T21:08:33.040Z,7.77
2019-03-23T21:19:11.501Z,7.83
2019-03-23T21:29:49.630Z,7.68
2019-03-23T21:40:27.901Z,7.56
2019-03-23T21:51:08.922Z,7.57
2019-03-23T22:01:50.374Z,7.46
2019-03-23T22:12:30.712Z,7.24
2019-03-23T22:23:10.529Z,7.06
2019-03-23T22:33:51.815Z,6.92
2019-03-23T22:44:36.145Z,6.66
2019-03-23T22:55:18.171Z,6.37
2019-03-23T23:05:54.591Z,6.19
2019-03-23T23:16:37.272Z,6.10
2019-03-23T23:27:21.984Z,5.93
2019-03-23T23:38:06.579Z,5.79
2019-03-23T23:48:51.506Z,5.57
2019-03-23T23:59:34.060Z,5.40
